createdAt,value
2019-01-24T00:00:09.296Z,29.80
2019-01-24T00:01:09.503Z,31.80
2019-01-24T00:02:09.620Z,30.00
2019-01-24T00:03:09.825Z,31.80
2019-01-24T00:04:13.125Z,31.10
2019-01-24T00:05:11.158Z,30.90
2019-01-24T00:06:10.374Z,30.60
2019-01-24T00:07:10.481Z,30.70
2019-01-24T00:08:10.669Z,29.90
2019-01-24T00:09:10.850Z,30.00
2019-01-24T00:10:11.001Z,30.20
2019-01-24T00:11:11.205Z,30.80
2019-01-24T00:12:11.471Z,30.00
2019-01-24T00:13:11.543Z,31.40
2019-01-24T00:14:11.709Z,29.40
2019-01-24T00:15:11.852Z,30.20
2019-01-24T00:16:12.029Z,29.40
2019-01-24T00:17:12.189Z,31.10
2019-01-24T00:18:12.359Z,29.20
2019-01-24T00:19:12.545Z,28.70
2019-01-24T00:20:12.755Z,30.70
2019-01-24T00:21:12.887Z,28.40
2019-01-24T00:22:13.030Z,29.10
2019-01-24T00:23:13.217Z,29.00
2019-01-24T00:24:13.597Z,29.60
2019-01-24T00:25:13.543Z,30.00
2019-01-24T00:26:13.737Z,29.80
2019-01-24T00:27:13.900Z,28.90
2019-01-24T00:28:14.146Z,29.30
2019-01-24T00:29:14.220Z,29.90
2019-01-24T00:30:14.367Z,29.70
2019-01-24T00:31:14.575Z,30.10
2019-01-24T00:32:14.733Z,28.20
2019-01-24T00:33:14.898Z,30.70
2019-01-24T00:34:15.090Z,30.20
2019-01-24T00:35:15.239Z,29.70
2019-01-24T00:36:15.439Z,29.40
2019-01-24T00:37:15.646Z,28.90
2019-01-24T00:38:15.772Z,29.90
2019-01-24T00:39:15.943Z,29.80
2019-01-24T00:40:16.092Z,29.20
2019-01-24T00:41:16.250Z,28.80
2019-01-24T00:42:16.433Z,28.90
2019-01-24T00:43:16.619Z,30.00
2019-01-24T00:44:16.827Z,29.00
2019-01-24T00:45:17.035Z,29.20
2019-01-24T00:46:17.095Z,30.70
2019-01-24T00:47:17.287Z,28.40
2019-01-24T00:48:17.475Z,29.50
2019-01-24T00:49:17.646Z,29.50
2019-01-24T00:50:17.794Z,28.40
2019-01-24T00:51:17.970Z,28.90
2019-01-24T00:52:18.140Z,28.20
2019-01-24T00:53:18.459Z,28.30
2019-01-24T00:54:18.489Z,28.80
2019-01-24T00:55:18.655Z,29.10
2019-01-24T00:56:18.826Z,29.80
2019-01-24T00:57:18.994Z,28.00
2019-01-24T00:58:19.180Z,29.30
2019-01-24T00:59:19.349Z,28.60
2019-01-24T01:00:19.513Z,28.70
2019-01-24T01:01:19.701Z,28.60
2019-01-24T01:02:19.840Z,28.70
2019-01-24T01:03:19.985Z,28.30
2019-01-24T01:04:20.189Z,28.90
2019-01-24T01:05:20.336Z,27.80
2019-01-24T01:06:20.511Z,29.60
2019-01-24T01:07:20.690Z,28.40
2019-01-24T01:08:20.842Z,28.60
2019-01-24T01:09:21.076Z,30.00
2019-01-24T01:10:21.247Z,30.20
2019-01-24T01:11:21.378Z,28.60
2019-01-24T01:12:21.553Z,29.70
2019-01-24T01:13:21.705Z,28.50
2019-01-24T01:14:21.878Z,29.10
2019-01-24T01:15:22.029Z,29.00
2019-01-24T01:16:22.230Z,27.90
2019-01-24T01:17:22.417Z,29.10
2019-01-24T01:18:22.695Z,29.20
2019-01-24T01:19:22.723Z,29.00
2019-01-24T01:20:22.892Z,28.10
2019-01-24T01:21:23.074Z,28.20
2019-01-24T01:22:23.313Z,29.20
2019-01-24T01:23:23.415Z,28.80
2019-01-24T01:24:23.599Z,29.00
2019-01-24T01:25:23.753Z,28.50
2019-01-24T01:26:24.022Z,29.30
2019-01-24T01:27:24.112Z,28.30
2019-01-24T01:28:24.260Z,27.90
2019-01-24T01:29:24.454Z,28.40
2019-01-24T01:30:24.595Z,28.80
2019-01-24T01:31:24.773Z,29.30
2019-01-24T01:32:24.981Z,28.90
2019-01-24T01:33:25.132Z,28.00
2019-01-24T01:34:25.339Z,28.70
2019-01-24T01:35:25.421Z,29.70
2019-01-24T01:36:25.597Z,28.00
2019-01-24T01:37:25.797Z,28.70
2019-01-24T01:38:25.969Z,30.00
2019-01-24T01:39:26.131Z,29.40
2019-01-24T01:40:26.291Z,29.80
2019-01-24T01:41:26.461Z,29.40
2019-01-24T01:42:26.703Z,29.50
2019-01-24T01:43:26.797Z,28.30
2019-01-24T01:44:26.971Z,28.50
2019-01-24T01:45:27.123Z,29.50
2019-01-24T01:46:27.293Z,28.70
2019-01-24T01:47:27.486Z,28.50
2019-01-24T01:48:27.636Z,27.90
2019-01-24T01:49:27.813Z,28.10
2019-01-24T01:50:28.008Z,28.70
2019-01-24T01:51:28.253Z,28.80
2019-01-24T01:52:28.330Z,28.20
2019-01-24T01:53:28.492Z,28.80
2019-01-24T01:54:28.673Z,29.90
2019-01-24T01:55:28.848Z,28.60
2019-01-24T01:56:29.008Z,31.70
2019-01-24T01:57:29.204Z,30.20
2019-01-24T01:58:29.374Z,30.40
2019-01-24T01:59:29.634Z,30.10
2019-01-24T02:00:29.943Z,30.60
2019-01-24T02:01:29.866Z,30.40
2019-01-24T02:02:30.051Z,30.60
2019-01-24T02:03:30.206Z,31.10
2019-01-24T02:04:30.356Z,29.00
2019-01-24T02:05:30.555Z,29.10
2019-01-24T02:06:30.705Z,30.20
2019-01-24T02:07:31.002Z,29.40
2019-01-24T02:08:31.049Z,30.00
2019-01-24T02:09:31.197Z,29.70
2019-01-24T02:10:31.396Z,29.60
2019-01-24T02:11:31.550Z,28.80
2019-01-24T02:12:31.737Z,28.40
2019-01-24T02:13:31.897Z,29.60
2019-01-24T02:14:32.049Z,29.80
2019-01-24T02:15:32.264Z,28.80
2019-01-24T02:16:32.382Z,28.30
2019-01-24T02:17:32.571Z,28.90
2019-01-24T02:18:32.729Z,29.90
2019-01-24T02:19:32.898Z,28.40
2019-01-24T02:20:33.084Z,29.00
2019-01-24T02:21:33.220Z,28.70
2019-01-24T02:22:33.415Z,29.50
2019-01-24T02:23:33.630Z,29.20
2019-01-24T02:24:33.749Z,29.70
2019-01-24T02:25:33.960Z,28.60
2019-01-24T02:26:34.101Z,28.80
2019-01-24T02:27:34.274Z,28.50
2019-01-24T02:28:34.457Z,28.80
2019-01-24T02:29:34.629Z,28.70
2019-01-24T02:30:34.800Z,29.10
2019-01-24T02:31:35.202Z,30.10
2019-01-24T02:32:35.224Z,30.40
2019-01-24T02:33:35.285Z,34.20
2019-01-24T02:34:35.452Z,28.60
2019-01-24T02:35:35.635Z,35.10
2019-01-24T02:36:35.786Z,32.80
2019-01-24T02:37:35.982Z,32.20
2019-01-24T02:38:36.118Z,32.90
2019-01-24T02:39:36.293Z,32.30
2019-01-24T02:40:36.585Z,38.40
2019-01-24T02:41:36.620Z,40.40
2019-01-24T02:42:36.807Z,37.20
2019-01-24T02:43:36.967Z,34.90
2019-01-24T02:44:37.151Z,32.60
2019-01-24T02:45:37.316Z,35.20
2019-01-24T02:46:37.482Z,36.00
2019-01-24T02:47:37.682Z,32.30
2019-01-24T02:48:37.858Z,32.30
2019-01-24T02:49:37.967Z,31.20
2019-01-24T02:50:38.153Z,30.90
2019-01-24T02:51:38.305Z,37.60
2019-01-24T02:52:38.493Z,29.40
2019-01-24T02:53:38.641Z,34.30
2019-01-24T02:54:38.812Z,35.00
2019-01-24T02:55:38.998Z,35.00
2019-01-24T02:56:39.201Z,30.20
2019-01-24T02:57:39.314Z,30.20
2019-01-24T02:58:39.475Z,31.00
2019-01-24T02:59:39.659Z,34.40
2019-01-24T03:00:39.807Z,28.90
2019-01-24T03:01:39.980Z,33.40
2019-01-24T03:02:40.151Z,32.10
2019-01-24T03:03:40.326Z,37.10
2019-01-24T03:04:40.561Z,32.50
2019-01-24T03:05:40.693Z,32.60
2019-01-24T03:06:40.827Z,31.70
2019-01-24T03:07:40.999Z,38.10
2019-01-24T03:08:41.185Z,34.70
2019-01-24T03:09:41.371Z,32.50
2019-01-24T03:10:41.532Z,31.60
2019-01-24T03:11:41.677Z,28.70
2019-01-24T03:12:41.896Z,30.70
2019-01-24T03:13:42.176Z,32.40
2019-01-24T03:14:42.238Z,30.50
2019-01-24T03:15:42.413Z,32.70
2019-01-24T03:16:42.546Z,33.70
2019-01-24T03:17:42.731Z,34.50
2019-01-24T03:18:42.919Z,29.90
2019-01-24T03:19:43.072Z,30.70
2019-01-24T03:20:43.252Z,30.90
2019-01-24T03:21:43.536Z,31.30
2019-01-24T03:22:43.583Z,32.00
2019-01-24T03:23:43.757Z,32.50
2019-01-24T03:24:43.924Z,30.20
2019-01-24T03:25:44.104Z,29.20
2019-01-24T03:26:44.256Z,28.40
2019-01-24T03:27:44.410Z,29.40
2019-01-24T03:28:44.607Z,30.40
2019-01-24T03:29:44.864Z,30.30
2019-01-24T03:30:44.928Z,29.20
2019-01-24T03:31:45.086Z,35.20
2019-01-24T03:32:45.256Z,32.10
2019-01-24T03:33:45.439Z,32.10
2019-01-24T03:34:45.606Z,31.40
2019-01-24T03:35:45.777Z,35.40
2019-01-24T03:36:45.922Z,34.40
2019-01-24T03:37:46.143Z,32.30
2019-01-24T03:38:46.242Z,30.80
2019-01-24T03:39:46.419Z,30.30
2019-01-24T03:40:46.612Z,31.00
2019-01-24T03:41:46.768Z,31.40
2019-01-24T03:42:46.928Z,28.80
2019-01-24T03:43:47.129Z,30.80
2019-01-24T03:44:47.288Z,31.00
2019-01-24T03:45:47.476Z,30.60
2019-01-24T03:46:47.674Z,31.10
2019-01-24T03:47:47.785Z,29.50
2019-01-24T03:48:47.967Z,31.20
2019-01-24T03:49:48.128Z,30.70
2019-01-24T03:50:48.289Z,31.10
2019-01-24T03:51:48.453Z,31.50
2019-01-24T03:52:48.628Z,30.70
2019-01-24T03:53:48.820Z,31.90
2019-01-24T03:54:49.081Z,32.70
2019-01-24T03:55:49.144Z,32.30
2019-01-24T03:56:49.306Z,32.20
2019-01-24T03:57:49.475Z,32.30
2019-01-24T03:58:49.656Z,33.70
2019-01-24T03:59:49.828Z,32.30
2019-01-24T04:00:50.012Z,33.40
2019-01-24T04:01:50.140Z,31.00
2019-01-24T04:02:50.485Z,32.90
2019-01-24T04:03:50.505Z,33.40
2019-01-24T04:04:50.678Z,33.80
2019-01-24T04:05:50.854Z,32.50
2019-01-24T04:06:50.982Z,31.80
2019-01-24T04:07:51.167Z,34.10
2019-01-24T04:08:51.367Z,33.50
2019-01-24T04:09:51.534Z,35.00
2019-01-24T04:10:51.723Z,34.00
2019-01-24T04:11:51.844Z,33.00
2019-01-24T04:12:52.004Z,34.30
2019-01-24T04:13:52.205Z,32.90
2019-01-24T04:14:52.373Z,31.10
2019-01-24T04:15:52.527Z,31.80
2019-01-24T04:16:52.715Z,30.60
2019-01-24T04:17:52.879Z,32.90
2019-01-24T04:18:53.095Z,32.00
2019-01-24T04:19:53.274Z,32.10
2019-01-24T04:20:53.394Z,31.90
2019-01-24T04:21:53.574Z,31.80
2019-01-24T04:22:53.737Z,33.00
2019-01-24T04:23:53.924Z,33.60
2019-01-24T04:24:54.076Z,31.50
2019-01-24T04:25:54.241Z,31.00
2019-01-24T04:26:54.463Z,31.70
2019-01-24T04:27:54.680Z,32.40
2019-01-24T04:28:54.757Z,32.10
2019-01-24T04:29:54.916Z,30.40
2019-01-24T04:30:55.113Z,31.10
2019-01-24T04:31:55.280Z,34.20
2019-01-24T04:32:55.432Z,36.50
2019-01-24T04:33:55.618Z,33.80
2019-01-24T04:34:55.769Z,31.90
2019-01-24T04:35:56.029Z,31.30
2019-01-24T04:36:56.124Z,33.40
2019-01-24T04:37:56.272Z,31.20
2019-01-24T04:38:56.465Z,32.20
2019-01-24T04:39:56.598Z,33.00
2019-01-24T04:40:56.808Z,32.40
2019-01-24T04:41:56.966Z,31.00
2019-01-24T04:42:57.119Z,30.80
2019-01-24T04:43:57.375Z,32.60
2019-01-24T04:44:57.443Z,32.50
2019-01-24T04:45:57.618Z,32.90
2019-01-24T04:46:57.801Z,31.10
2019-01-24T04:47:57.956Z,31.90
2019-01-24T04:48:58.143Z,33.20
2019-01-24T04:49:58.292Z,32.20
2019-01-24T04:50:58.478Z,31.70
2019-01-24T04:51:58.663Z,31.20
2019-01-24T04:52:58.784Z,32.70
2019-01-24T04:53:58.978Z,32.20
2019-01-24T04:54:59.134Z,33.60
2019-01-24T04:55:59.290Z,32.70
2019-01-24T04:56:59.484Z,32.10
2019-01-24T04:57:59.628Z,33.40
2019-01-24T04:58:59.829Z,34.40
2019-01-24T05:00:00.197Z,32.10
2019-01-24T05:01:00.243Z,31.20
2019-01-24T05:02:00.348Z,33.30
2019-01-24T05:03:00.487Z,31.60
2019-01-24T05:04:00.684Z,31.40
2019-01-24T05:05:00.854Z,31.80
2019-01-24T05:06:01.028Z,31.30
2019-01-24T05:07:01.208Z,31.70
2019-01-24T05:08:01.366Z,36.50
2019-01-24T05:09:01.622Z,33.50
2019-01-24T05:10:02.307Z,35.00
2019-01-24T05:11:01.883Z,31.40
2019-01-24T05:12:02.051Z,31.20
2019-01-24T05:13:02.200Z,31.30
2019-01-24T05:14:02.353Z,30.00
2019-01-24T05:15:02.518Z,31.40
2019-01-24T05:16:02.721Z,32.00
2019-01-24T05:17:03.252Z,31.90
2019-01-24T05:18:03.042Z,30.20
2019-01-24T05:19:03.196Z,29.80
2019-01-24T05:20:03.414Z,33.20
2019-01-24T05:21:03.597Z,30.90
2019-01-24T05:22:03.766Z,31.50
2019-01-24T05:23:03.911Z,32.60
2019-01-24T05:24:04.088Z,30.80
2019-01-24T05:25:04.284Z,32.70
2019-01-24T05:26:04.447Z,31.70
2019-01-24T05:27:04.622Z,30.70
2019-01-24T05:28:04.773Z,31.40
2019-01-24T05:29:04.941Z,30.70
2019-01-24T05:30:05.128Z,32.40
2019-01-24T05:31:05.267Z,33.20
2019-01-24T05:32:05.464Z,30.30
2019-01-24T05:33:05.687Z,30.80
2019-01-24T05:34:05.782Z,31.50
2019-01-24T05:35:05.976Z,30.90
2019-01-24T05:36:06.145Z,32.00
2019-01-24T05:37:06.305Z,33.40
2019-01-24T05:38:06.470Z,31.00
2019-01-24T05:39:06.634Z,32.10
2019-01-24T05:40:06.828Z,31.70
2019-01-24T05:41:07.016Z,31.40
2019-01-24T05:42:07.245Z,33.00
2019-01-24T05:43:07.318Z,32.00
2019-01-24T05:44:07.488Z,31.00
2019-01-24T05:45:07.676Z,30.60
2019-01-24T05:46:07.836Z,30.80
2019-01-24T05:47:08.014Z,30.80
2019-01-24T05:48:08.151Z,30.50
2019-01-24T05:49:08.336Z,30.90
2019-01-24T05:50:08.663Z,32.30
2019-01-24T05:51:08.714Z,28.90
2019-01-24T05:52:08.872Z,30.80
2019-01-24T05:53:09.043Z,29.50
2019-01-24T05:54:09.197Z,29.60
2019-01-24T05:55:09.387Z,29.10
2019-01-24T05:56:09.561Z,30.40
2019-01-24T05:57:09.727Z,30.80
2019-01-24T05:58:09.908Z,29.90
2019-01-24T05:59:10.044Z,29.80
2019-01-24T06:00:10.227Z,28.70
2019-01-24T06:01:10.396Z,28.00
2019-01-24T06:02:10.558Z,29.40
2019-01-24T06:03:10.718Z,29.90
2019-01-24T06:04:10.866Z,30.30
2019-01-24T06:05:11.075Z,29.20
2019-01-24T06:06:11.308Z,29.20
2019-01-24T06:07:11.411Z,28.30
2019-01-24T06:08:11.568Z,28.10
2019-01-24T06:09:11.737Z,26.30
2019-01-24T06:10:11.904Z,27.70
2019-01-24T06:11:12.103Z,28.40
2019-01-24T06:12:12.257Z,27.60
2019-01-24T06:13:12.415Z,27.50
2019-01-24T06:14:12.630Z,28.30
2019-01-24T06:15:12.803Z,28.40
2019-01-24T06:16:12.938Z,28.20
2019-01-24T06:17:13.117Z,29.00
2019-01-24T06:18:13.292Z,28.00
2019-01-24T06:19:13.454Z,31.30
2019-01-24T06:20:13.643Z,28.20
2019-01-24T06:21:13.812Z,27.90
2019-01-24T06:22:13.963Z,26.80
2019-01-24T06:23:14.288Z,26.70
2019-01-24T06:24:14.324Z,28.50
2019-01-24T06:25:14.513Z,25.80
2019-01-24T06:26:14.661Z,27.10
2019-01-24T06:27:14.829Z,26.80
2019-01-24T06:28:15.032Z,25.90
2019-01-24T06:29:15.193Z,26.10
2019-01-24T06:30:15.382Z,25.40
2019-01-24T06:31:15.618Z,25.90
2019-01-24T06:32:15.701Z,25.40
2019-01-24T06:33:15.901Z,25.80
2019-01-24T06:34:16.044Z,26.20
2019-01-24T06:35:16.233Z,25.00
2019-01-24T06:36:16.405Z,26.10
2019-01-24T06:37:16.537Z,27.00
2019-01-24T06:38:16.731Z,26.00
2019-01-24T06:39:16.976Z,24.30
2019-01-24T06:40:17.061Z,25.70
2019-01-24T06:41:17.237Z,25.60
2019-01-24T06:42:17.389Z,25.50
2019-01-24T06:43:17.564Z,23.80
2019-01-24T06:44:17.728Z,27.60
2019-01-24T06:45:17.916Z,26.70
2019-01-24T06:46:18.077Z,24.50
2019-01-24T06:47:18.288Z,26.40
2019-01-24T06:48:18.383Z,26.70
2019-01-24T06:49:18.544Z,34.90
2019-01-24T06:50:18.745Z,26.70
2019-01-24T06:51:18.912Z,25.60
2019-01-24T06:52:19.078Z,23.80
2019-01-24T06:53:19.264Z,24.70
2019-01-24T06:54:19.416Z,23.10
2019-01-24T06:55:19.616Z,24.30
2019-01-24T06:56:19.839Z,24.30
2019-01-24T06:57:20.157Z,24.30
2019-01-24T06:58:20.113Z,23.70
2019-01-24T06:59:20.275Z,23.40
2019-01-24T07:00:20.436Z,24.40
2019-01-24T07:01:20.620Z,23.60
2019-01-24T07:02:20.787Z,25.10
2019-01-24T07:03:20.975Z,24.00
2019-01-24T07:04:21.209Z,24.50
2019-01-24T07:05:21.383Z,24.00
2019-01-24T07:06:21.482Z,22.60
2019-01-24T07:07:21.633Z,23.60
2019-01-24T07:08:21.814Z,23.90
2019-01-24T07:09:21.959Z,23.00
2019-01-24T07:10:22.160Z,23.50
2019-01-24T07:11:22.323Z,22.60
2019-01-24T07:12:22.593Z,24.10
2019-01-24T07:13:22.660Z,23.40
2019-01-24T07:14:22.814Z,24.40
2019-01-24T07:15:23.004Z,23.60
2019-01-24T07:16:23.157Z,24.10
2019-01-24T07:17:23.323Z,23.20
2019-01-24T07:18:23.509Z,24.90
2019-01-24T07:19:23.662Z,23.30
2019-01-24T07:20:23.897Z,23.30
2019-01-24T07:21:24.001Z,23.60
2019-01-24T07:22:24.145Z,22.40
2019-01-24T07:23:24.349Z,23.30
2019-01-24T07:24:24.533Z,24.00
2019-01-24T07:25:24.668Z,23.10
2019-01-24T07:26:24.853Z,23.40
2019-01-24T07:27:25.005Z,24.10
2019-01-24T07:28:25.211Z,23.70
2019-01-24T07:29:25.339Z,23.40
2019-01-24T07:30:25.525Z,23.10
2019-01-24T07:31:25.727Z,24.60
2019-01-24T07:32:25.868Z,24.90
2019-01-24T07:33:26.063Z,23.30
2019-01-24T07:34:26.191Z,23.00
2019-01-24T07:35:26.387Z,24.90
2019-01-24T07:36:26.632Z,24.50
2019-01-24T07:37:26.801Z,23.70
2019-01-24T07:38:26.902Z,24.60
2019-01-24T07:39:27.050Z,24.30
2019-01-24T07:40:27.237Z,25.40
2019-01-24T07:41:27.431Z,23.80
2019-01-24T07:42:27.582Z,25.70
2019-01-24T07:43:27.763Z,25.70
2019-01-24T07:44:27.914Z,23.30
2019-01-24T07:45:28.197Z,22.80
2019-01-24T07:46:28.292Z,23.40
2019-01-24T07:47:28.430Z,24.40
2019-01-24T07:48:28.610Z,24.30
2019-01-24T07:49:28.753Z,24.50
2019-01-24T07:50:28.923Z,23.10
2019-01-24T07:51:29.131Z,24.30
2019-01-24T07:52:29.280Z,23.30
2019-01-24T07:53:29.538Z,22.00
2019-01-24T07:54:29.598Z,23.10
2019-01-24T07:55:29.752Z,22.50
2019-01-24T07:56:29.969Z,24.00
2019-01-24T07:57:30.130Z,24.50
2019-01-24T07:58:30.299Z,23.90
2019-01-24T07:59:30.453Z,24.00
2019-01-24T08:00:30.626Z,22.70
2019-01-24T08:01:30.854Z,23.00
2019-01-24T08:02:30.961Z,22.20
2019-01-24T08:03:31.136Z,22.00
2019-01-24T08:04:31.282Z,22.40
2019-01-24T08:05:31.452Z,23.20
2019-01-24T08:06:31.640Z,23.50
2019-01-24T08:07:31.799Z,22.60
2019-01-24T08:08:31.984Z,21.90
2019-01-24T08:09:32.185Z,20.20
2019-01-24T08:10:32.350Z,20.30
2019-01-24T08:11:32.512Z,21.80
2019-01-24T08:12:32.667Z,21.10
2019-01-24T08:13:32.856Z,21.60
2019-01-24T08:14:33.018Z,20.10
2019-01-24T08:15:33.191Z,20.10
2019-01-24T08:16:33.378Z,21.20
2019-01-24T08:17:33.555Z,20.70
2019-01-24T08:18:33.800Z,21.40
2019-01-24T08:19:33.865Z,21.30
2019-01-24T08:20:34.036Z,21.40
2019-01-24T08:21:34.223Z,22.80
2019-01-24T08:22:34.385Z,22.50
2019-01-24T08:23:34.545Z,21.10
2019-01-24T08:24:34.691Z,20.80
2019-01-24T08:25:34.878Z,21.50
2019-01-24T08:26:35.231Z,21.80
2019-01-24T08:27:35.218Z,22.50
2019-01-24T08:28:35.374Z,22.80
2019-01-24T08:29:35.558Z,22.10
2019-01-24T08:30:35.746Z,21.10
2019-01-24T08:31:35.948Z,22.40
2019-01-24T08:32:36.121Z,23.60
2019-01-24T08:33:36.253Z,22.60
2019-01-24T08:34:36.464Z,22.50
2019-01-24T08:35:36.824Z,23.10
2019-01-24T08:36:36.794Z,21.70
2019-01-24T08:37:36.955Z,22.10
2019-01-24T08:38:37.110Z,21.70
2019-01-24T08:39:37.296Z,22.90
2019-01-24T08:40:37.467Z,21.60
2019-01-24T08:41:37.637Z,23.00
2019-01-24T08:42:37.886Z,22.70
2019-01-24T08:43:37.951Z,22.80
2019-01-24T08:44:38.143Z,22.50
2019-01-24T08:45:38.300Z,22.00
2019-01-24T08:46:38.478Z,22.30
2019-01-24T08:47:38.661Z,22.20
2019-01-24T08:48:38.832Z,23.00
2019-01-24T08:49:39.021Z,24.20
2019-01-24T08:50:39.194Z,22.20
2019-01-24T08:51:39.429Z,23.30
2019-01-24T08:52:39.520Z,23.60
2019-01-24T08:53:39.702Z,23.60
2019-01-24T08:54:39.881Z,23.40
2019-01-24T08:55:40.031Z,23.20
2019-01-24T08:56:40.234Z,24.20
2019-01-24T08:57:40.356Z,24.00
2019-01-24T08:58:40.531Z,22.90
2019-01-24T08:59:40.834Z,23.40
2019-01-24T09:00:40.880Z,22.40
2019-01-24T09:01:41.080Z,22.70
2019-01-24T09:02:41.195Z,24.00
2019-01-24T09:03:41.386Z,23.90
2019-01-24T09:04:41.588Z,23.00
2019-01-24T09:05:41.740Z,23.10
2019-01-24T09:06:41.933Z,23.80
2019-01-24T09:07:42.174Z,22.30
2019-01-24T09:08:42.246Z,24.20
2019-01-24T09:09:42.446Z,23.60
2019-01-24T09:10:42.596Z,23.70
2019-01-24T09:11:42.787Z,23.30
2019-01-24T09:12:42.938Z,24.50
2019-01-24T09:13:43.123Z,24.80
2019-01-24T09:14:43.279Z,25.30
2019-01-24T09:15:43.481Z,24.00
2019-01-24T09:16:43.643Z,26.20
2019-01-24T09:17:43.780Z,25.70
2019-01-24T09:18:43.972Z,24.70
2019-01-24T09:19:44.131Z,25.20
2019-01-24T09:20:44.263Z,25.00
2019-01-24T09:21:44.464Z,25.30
2019-01-24T09:22:44.651Z,24.50
2019-01-24T09:23:44.882Z,24.40
2019-01-24T09:24:44.994Z,24.30
2019-01-24T09:25:45.126Z,24.70
2019-01-24T09:26:45.356Z,25.00
2019-01-24T09:27:45.499Z,24.30
2019-01-24T09:28:45.642Z,24.40
2019-01-24T09:29:45.839Z,24.80
2019-01-24T09:30:45.990Z,23.70
2019-01-24T09:31:46.162Z,24.50
2019-01-24T09:32:46.486Z,25.20
2019-01-24T09:33:46.509Z,24.80
2019-01-24T09:34:46.692Z,25.20
2019-01-24T09:35:46.844Z,24.00
2019-01-24T09:36:47.013Z,26.50
2019-01-24T09:37:47.201Z,25.20
2019-01-24T09:38:47.386Z,24.80
2019-01-24T09:39:47.569Z,25.60
2019-01-24T09:40:47.869Z,25.60
2019-01-24T09:41:47.891Z,25.10
2019-01-24T09:42:48.097Z,23.70
2019-01-24T09:43:48.259Z,25.70
2019-01-24T09:44:48.441Z,23.20
2019-01-24T09:45:48.596Z,23.90
2019-01-24T09:46:48.768Z,24.00
2019-01-24T09:47:48.941Z,24.30
2019-01-24T09:48:49.179Z,24.20
2019-01-24T09:49:49.286Z,22.60
2019-01-24T09:50:49.445Z,23.30
2019-01-24T09:51:49.635Z,22.90
2019-01-24T09:52:49.802Z,23.50
2019-01-24T09:53:49.965Z,22.90
2019-01-24T09:54:50.151Z,22.90
2019-01-24T09:55:50.303Z,22.90
2019-01-24T09:56:50.543Z,23.00
2019-01-24T09:57:50.644Z,23.60
2019-01-24T09:58:50.808Z,23.30
2019-01-24T09:59:50.991Z,22.80
2019-01-24T10:00:51.150Z,23.50
2019-01-24T10:01:51.325Z,24.80
2019-01-24T10:02:51.521Z,23.30
2019-01-24T10:03:51.679Z,23.90
2019-01-24T10:04:51.864Z,25.50
2019-01-24T10:05:52.071Z,24.70
2019-01-24T10:06:52.196Z,23.70
2019-01-24T10:07:52.385Z,24.90
2019-01-24T10:08:52.543Z,24.30
2019-01-24T10:09:52.716Z,24.40
2019-01-24T10:10:52.858Z,23.00
2019-01-24T10:11:53.045Z,22.90
2019-01-24T10:12:53.502Z,24.10
2019-01-24T10:13:53.518Z,23.70
2019-01-24T10:14:53.577Z,24.10
2019-01-24T10:15:53.707Z,22.80
2019-01-24T10:16:53.897Z,22.30
2019-01-24T10:17:54.073Z,23.20
2019-01-24T10:18:54.238Z,23.40
2019-01-24T10:19:54.413Z,23.10
2019-01-24T10:20:54.571Z,24.10
2019-01-24T10:21:54.860Z,25.30
2019-01-24T10:22:54.915Z,24.40
2019-01-24T10:23:57.997Z,24.90
2019-01-24T10:24:55.261Z,25.50
2019-01-24T10:25:55.413Z,26.50
2019-01-24T10:26:55.586Z,25.70
2019-01-24T10:27:55.766Z,24.80
2019-01-24T10:28:55.937Z,25.10
2019-01-24T10:29:56.199Z,24.90
2019-01-24T10:30:56.256Z,25.60
2019-01-24T10:31:56.433Z,24.50
2019-01-24T10:32:56.602Z,25.00
2019-01-24T10:33:56.774Z,24.20
2019-01-24T10:34:56.956Z,24.70
2019-01-24T10:35:57.111Z,25.10
2019-01-24T10:36:57.280Z,25.10
2019-01-24T10:37:57.534Z,25.70
2019-01-24T10:38:57.596Z,25.10
2019-01-24T10:39:57.791Z,24.50
2019-01-24T10:40:57.939Z,25.20
2019-01-24T10:41:58.119Z,25.60
2019-01-24T10:42:58.310Z,24.60
2019-01-24T10:43:58.477Z,25.30
2019-01-24T10:44:58.627Z,24.90
2019-01-24T10:45:58.826Z,24.90
2019-01-24T10:46:59.010Z,25.40
2019-01-24T10:47:59.167Z,23.40
2019-01-24T10:48:59.390Z,24.70
2019-01-24T10:49:59.466Z,23.80
2019-01-24T10:50:59.648Z,23.10
2019-01-24T10:51:59.820Z,24.90
2019-01-24T10:53:00.026Z,24.70
2019-01-24T10:54:00.164Z,25.20
2019-01-24T10:55:00.458Z,23.70
2019-01-24T10:56:00.513Z,24.60
2019-01-24T10:57:00.744Z,22.60
2019-01-24T10:58:00.906Z,24.10
2019-01-24T10:59:01.021Z,24.40
2019-01-24T11:00:01.186Z,24.20
2019-01-24T11:01:01.364Z,23.60
2019-01-24T11:02:02.876Z,24.70
2019-01-24T11:03:02.064Z,24.90
2019-01-24T11:04:01.907Z,23.60
2019-01-24T11:05:02.054Z,23.40
2019-01-24T11:06:02.227Z,24.30
2019-01-24T11:07:02.392Z,24.20
2019-01-24T11:08:02.588Z,24.00
2019-01-24T11:09:02.760Z,26.20
2019-01-24T11:10:02.916Z,25.40
2019-01-24T11:11:03.151Z,24.40
2019-01-24T11:12:03.341Z,25.50
2019-01-24T11:13:03.558Z,25.50
2019-01-24T11:14:03.751Z,27.70
2019-01-24T11:15:03.909Z,27.50
2019-01-24T11:16:04.105Z,28.60
2019-01-24T11:17:04.255Z,28.50
2019-01-24T11:18:04.448Z,30.60
2019-01-24T11:19:04.667Z,27.00
2019-01-24T11:20:04.782Z,30.10
2019-01-24T11:21:04.985Z,29.60
2019-01-24T11:22:05.143Z,28.40
2019-01-24T11:23:05.339Z,29.40
2019-01-24T11:24:05.533Z,30.20
2019-01-24T11:25:05.669Z,30.50
2019-01-24T11:26:05.891Z,29.60
2019-01-24T11:27:06.049Z,31.40
2019-01-24T11:28:06.319Z,31.00
2019-01-24T11:29:06.401Z,31.10
2019-01-24T11:30:06.564Z,33.30
2019-01-24T11:31:06.757Z,33.30
2019-01-24T11:32:06.917Z,33.60
2019-01-24T11:33:07.110Z,33.80
2019-01-24T11:34:07.328Z,32.80
2019-01-24T11:35:07.430Z,33.40
2019-01-24T11:36:07.746Z,34.10
2019-01-24T11:37:07.808Z,33.40
2019-01-24T11:38:08.000Z,32.90
2019-01-24T11:39:08.180Z,33.50
2019-01-24T11:40:08.334Z,33.50
2019-01-24T11:41:08.535Z,32.90
2019-01-24T11:42:08.695Z,33.50
2019-01-24T11:43:08.890Z,35.20
2019-01-24T11:44:09.134Z,33.00
2019-01-24T11:45:09.158Z,33.00
2019-01-24T11:46:09.328Z,33.20
2019-01-24T11:47:09.499Z,32.30
2019-01-24T11:48:09.675Z,33.10
2019-01-24T11:49:09.867Z,34.60
2019-01-24T11:50:10.020Z,34.50
2019-01-24T11:51:10.438Z,36.10
2019-01-24T11:52:10.621Z,36.10
2019-01-24T11:53:10.596Z,37.50
2019-01-24T11:54:10.761Z,37.90
2019-01-24T11:55:10.951Z,34.90
2019-01-24T11:56:11.107Z,35.00
2019-01-24T11:57:11.264Z,35.80
2019-01-24T11:58:11.482Z,36.30
2019-01-24T11:59:11.644Z,35.80
2019-01-24T12:00:11.878Z,35.80
2019-01-24T12:01:12.019Z,36.60
2019-01-24T12:02:12.163Z,37.60
2019-01-24T12:03:12.364Z,34.50
2019-01-24T12:04:12.535Z,34.70
2019-01-24T12:05:12.732Z,35.60
2019-01-24T12:06:12.907Z,36.60
2019-01-24T12:07:13.060Z,37.40
2019-01-24T12:08:13.236Z,36.10
2019-01-24T12:09:13.551Z,35.80
2019-01-24T12:10:13.630Z,37.50
2019-01-24T12:11:13.808Z,36.90
2019-01-24T12:12:13.949Z,37.80
2019-01-24T12:13:14.139Z,36.00
2019-01-24T12:14:14.340Z,37.80
2019-01-24T12:15:14.537Z,37.30
2019-01-24T12:16:14.711Z,37.00
2019-01-24T12:17:14.963Z,36.50
2019-01-24T12:18:15.048Z,37.30
2019-01-24T12:19:15.250Z,37.50
2019-01-24T12:20:15.459Z,37.10
2019-01-24T12:21:15.608Z,37.00
2019-01-24T12:22:15.767Z,35.20
2019-01-24T12:23:15.923Z,37.30
2019-01-24T12:24:16.136Z,37.00
2019-01-24T12:25:16.389Z,36.80
2019-01-24T12:26:16.486Z,36.50
2019-01-24T12:27:16.651Z,35.30
2019-01-24T12:28:16.838Z,37.30
2019-01-24T12:29:17.007Z,36.40
2019-01-24T12:30:17.195Z,36.30
2019-01-24T12:31:17.387Z,36.00
2019-01-24T12:32:17.548Z,36.50
2019-01-24T12:33:17.772Z,36.60
2019-01-24T12:34:17.891Z,35.00
2019-01-24T12:35:18.052Z,34.80
2019-01-24T12:36:19.431Z,35.60
2019-01-24T12:37:18.412Z,35.10
2019-01-24T12:38:18.626Z,34.40
2019-01-24T12:39:18.803Z,35.80
2019-01-24T12:40:18.941Z,34.20
2019-01-24T12:41:19.142Z,34.90
2019-01-24T12:42:19.364Z,33.50
2019-01-24T12:43:19.480Z,35.90
2019-01-24T12:44:21.242Z,34.20
2019-01-24T12:45:19.821Z,36.70
2019-01-24T12:46:19.998Z,34.60
2019-01-24T12:47:20.173Z,33.10
2019-01-24T12:48:20.407Z,33.20
2019-01-24T12:49:21.292Z,34.90
2019-01-24T12:50:20.855Z,32.80
2019-01-24T12:51:20.877Z,34.00
2019-01-24T12:52:21.042Z,34.70
2019-01-24T12:53:21.228Z,33.40
2019-01-24T12:54:21.408Z,32.60